Washburn, Iowa
Current Conditions -  °F | °C
As of 12:54 AM on Wednesday 22 Oct 2014 (Local Time) from KALO Reporting Station
Clear Clear  
Wind Chill: 37°   Ceiling: Unl
Heat Index: 42°   Visibility: 10mi
Dew Point: 37°   Wind: 9mph
Humidity: 82%   Direction: 130°SE
Pressure: 30.22"   Gusts: NA
Location:  42.4105°N, 92.272°W
Report Text: KALO 220554Z 13008KT 10SM CLR 06/03 A3022 RMK AO2 SLP237 T00560028 10100 20056 401560006 51005
Loading
Personal Weather Stations






























Interactive Weather Map
Tropical Storm Tracking
New forecast layout! Learn more

10-Day Weather Forecast

Advertisements
Track Severe Weather on mobile